Time;durP1;ratioP1;P1;durP2;ratioP2;P2;SDS_P1;SDS_P2;PMS_P1;PMS_P2;Temp;Humidity;BMP_temperature;BMP_pressure;BME280_temperature;BME280_humidity;BME280_pressure;Samples;Min_cycle;Max_cycle;Signal;HPM_P1;HPM_P2
2023/12/22 00:01:27;;;;;;;22.05;3.85;;;7.40;87.70;;;;;;9177222;19;20022;-73
2023/12/22 00:04:35;;;;;;;18.70;2.55;;;7.40;87.70;;;;;;9174758;19;20019;-74
2023/12/22 00:07:43;;;;;;;25.80;3.50;;;7.40;87.70;;;;;;9175287;19;20487;-72
2023/12/22 00:10:52;;;;;;;28.25;4.75;;;7.40;87.60;;;;;;9176815;19;20514;-73
2023/12/22 00:13:58;;;;;;;29.58;3.55;;;7.50;87.70;;;;;;9177353;19;20014;-72
2023/12/22 00:17:06;;;;;;;43.75;4.95;;;7.40;87.60;;;;;;9176532;19;20026;-73
2023/12/22 00:20:14;;;;;;;20.98;3.33;;;7.40;87.50;;;;;;9174602;19;20018;-72
2023/12/22 00:23:26;;;;;;;25.92;3.33;;;7.40;87.60;;;;;;9173867;19;20011;-73
2023/12/22 00:26:32;;;;;;;20.70;3.33;;;7.40;87.50;;;;;;9177133;19;20024;-69
2023/12/22 00:29:39;;;;;;;23.70;3.42;;;7.40;87.50;;;;;;9176471;19;20010;-74
2023/12/22 00:32:45;;;;;;;17.05;3.00;;;7.40;87.50;;;;;;9175111;19;20011;-73
2023/12/22 00:35:52;;;;;;;22.88;3.70;;;7.40;87.40;;;;;;9175700;19;20022;-70
2023/12/22 00:39:01;;;;;;;31.33;4.60;;;7.40;87.50;;;;;;9175019;19;20022;-71
2023/12/22 00:42:08;;;;;;;27.85;4.32;;;7.40;87.40;;;;;;9175071;19;20108;-73
2023/12/22 00:45:14;;;;;;;21.83;3.35;;;7.40;87.40;;;;;;9175738;19;20022;-71
2023/12/22 00:48:21;;;;;;;26.73;4.07;;;7.40;87.40;;;;;;9176162;19;20364;-69
2023/12/22 00:51:27;;;;;;;23.40;3.42;;;7.40;87.40;;;;;;9176397;19;20076;-69
2023/12/22 00:54:37;;;;;;;25.30;3.22;;;7.40;87.30;;;;;;9175190;19;20021;-69
2023/12/22 00:57:43;;;;;;;15.60;3.30;;;7.40;87.30;;;;;;9175946;19;20018;-68
2023/12/22 01:00:50;;;;;;;17.65;2.97;;;7.40;87.30;;;;;;9175365;19;20119;-69
2023/12/22 01:03:56;;;;;;;35.78;4.43;;;7.40;87.30;;;;;;9177664;19;20046;-69
2023/12/22 01:07:04;;;;;;;17.60;2.80;;;7.40;87.20;;;;;;9181525;19;20018;-69
2023/12/22 01:10:12;;;;;;;27.65;3.70;;;7.40;87.10;;;;;;9184850;19;20397;-70
2023/12/22 01:13:20;;;;;;;23.52;3.20;;;7.40;87.10;;;;;;9184163;19;20376;-74
2023/12/22 01:16:26;;;;;;;18.52;2.58;;;7.40;87.00;;;;;;9184240;19;20025;-69
2023/12/22 01:19:33;;;;;;;25.45;3.55;;;7.40;87.00;;;;;;9182797;19;20025;-70
2023/12/22 01:22:39;;;;;;;19.05;2.80;;;7.40;87.00;;;;;;9183578;19;20420;-70
2023/12/22 01:25:49;;;;;;;23.88;2.55;;;7.40;87.00;;;;;;9182581;19;20019;-70
2023/12/22 01:28:55;;;;;;;18.58;3.00;;;7.30;86.90;;;;;;9184511;19;20086;-70
2023/12/22 01:32:03;;;;;;;32.83;4.53;;;7.30;87.50;;;;;;9181509;19;20018;-71
2023/12/22 01:35:09;;;;;;;21.98;3.15;;;7.30;86.90;;;;;;9182884;19;20018;-70
2023/12/22 01:38:17;;;;;;;20.67;2.90;;;7.30;86.80;;;;;;9182528;19;20052;-71
2023/12/22 01:41:25;;;;;;;25.25;3.70;;;7.30;86.90;;;;;;9183182;19;20011;-71
2023/12/22 01:44:33;;;;;;;12.82;2.10;;;7.30;86.90;;;;;;9183253;19;20019;-71
2023/12/22 01:47:39;;;;;;;21.02;3.53;;;7.30;86.80;;;;;;9180414;19;20018;-71
2023/12/22 01:50:47;;;;;;;23.85;3.05;;;7.30;86.80;;;;;;9180836;19;20018;-71
2023/12/22 01:53:55;;;;;;;20.50;3.13;;;7.40;86.90;;;;;;9182420;19;20352;-72
2023/12/22 01:57:25;;;;;;;22.95;4.63;;;7.40;86.80;;;;;;9181560;19;20488;-71
2023/12/22 02:00:31;;;;;;;21.00;2.75;;;7.40;86.80;;;;;;9181216;19;20011;-71
2023/12/22 02:03:41;;;;;;;30.55;3.38;;;7.40;86.70;;;;;;9177164;19;20506;-71
2023/12/22 02:06:48;;;;;;;31.83;5.43;;;7.40;86.70;;;;;;9180210;19;20023;-71
2023/12/22 02:09:56;;;;;;;18.10;2.95;;;7.40;86.70;;;;;;9182615;19;20021;-71
2023/12/22 02:13:05;;;;;;;24.20;4.32;;;7.40;87.30;;;;;;9180413;19;20078;-70
2023/12/22 02:16:25;;;;;;;21.15;3.33;;;7.40;86.70;;;;;;9180110;19;20103;-72
2023/12/22 02:19:44;;;;;;;24.15;3.10;;;7.40;86.60;;;;;;9180043;19;20083;-73
2023/12/22 02:22:57;;;;;;;18.67;3.00;;;7.40;86.60;;;;;;9181933;19;20022;-70
2023/12/22 02:26:13;;;;;;;22.40;2.25;;;7.40;86.60;;;;;;9182356;19;20013;-70
2023/12/22 02:29:20;;;;;;;22.63;3.50;;;7.50;86.60;;;;;;9178983;19;20010;-72
2023/12/22 02:32:31;;;;;;;13.10;2.95;;;7.50;86.60;;;;;;9179702;19;20010;-71
2023/12/22 02:35:41;;;;;;;15.55;2.08;;;7.40;86.50;;;;;;9181682;19;20018;-73
2023/12/22 02:38:52;;;;;;;9.73;1.30;;;7.40;86.40;;;;;;9178314;19;20375;-71
2023/12/22 02:42:03;;;;;;;15.00;2.22;;;7.40;86.40;;;;;;9181624;19;20014;-71
2023/12/22 02:45:16;;;;;;;9.20;1.63;;;7.40;86.40;;;;;;9180166;19;20021;-72
2023/12/22 02:48:23;;;;;;;10.23;1.38;;;7.30;86.30;;;;;;9180697;19;20085;-75
2023/12/22 02:51:31;;;;;;;13.43;1.63;;;7.30;86.30;;;;;;9181427;19;20020;-73
2023/12/22 02:54:42;;;;;;;8.43;1.25;;;7.30;86.20;;;;;;9180080;19;20019;-72
2023/12/22 02:57:48;;;;;;;18.23;2.03;;;7.20;86.20;;;;;;9179434;19;20430;-73
2023/12/22 03:00:56;;;;;;;11.70;2.22;;;7.20;86.30;;;;;;9174788;19;20491;-76
2023/12/22 03:04:01;;;;;;;8.00;1.27;;;7.10;86.30;;;;;;9174871;19;20794;-74
2023/12/22 03:07:09;;;;;;;8.18;1.70;;;7.10;86.90;;;;;;9177873;19;20015;-75
2023/12/22 03:10:19;;;;;;;6.07;1.45;;;7.10;86.40;;;;;;9176535;19;20010;-76
2023/12/22 03:13:27;;;;;;;5.30;1.23;;;7.00;86.40;;;;;;9178968;19;20031;-75
2023/12/22 03:16:33;;;;;;;5.10;1.10;;;6.90;86.40;;;;;;9178790;19;20368;-74
2023/12/22 03:19:41;;;;;;;6.47;1.25;;;6.90;86.40;;;;;;9178855;19;20356;-74
2023/12/22 03:22:50;;;;;;;5.28;0.88;;;6.90;86.50;;;;;;9179888;19;20015;-75
2023/12/22 03:26:00;;;;;;;12.55;1.33;;;6.80;86.40;;;;;;9175916;19;20480;-74
2023/12/22 03:29:06;;;;;;;8.52;1.42;;;6.80;86.40;;;;;;9179579;19;20025;-76
2023/12/22 03:32:13;;;;;;;15.18;1.70;;;6.80;86.40;;;;;;9178473;19;20029;-74
2023/12/22 03:35:19;;;;;;;18.13;2.08;;;6.80;86.50;;;;;;9176388;19;20015;-74
2023/12/22 03:38:26;;;;;;;9.88;1.45;;;6.70;86.50;;;;;;9177107;19;20023;-73
2023/12/22 03:41:35;;;;;;;14.80;1.80;;;6.80;86.60;;;;;;9175009;19;20592;-74
2023/12/22 03:44:42;;;;;;;8.85;2.67;;;6.70;86.60;;;;;;9176043;19;20119;-74
2023/12/22 03:47:48;;;;;;;13.27;2.40;;;6.70;86.70;;;;;;9178341;19;20019;-74
2023/12/22 03:50:56;;;;;;;13.10;2.03;;;6.70;86.70;;;;;;9178230;19;21424;-75
2023/12/22 03:54:02;;;;;;;14.32;1.95;;;6.70;86.80;;;;;;9177970;19;20532;-75
2023/12/22 03:57:12;;;;;;;13.25;2.17;;;6.70;86.80;;;;;;9177300;19;20023;-72
2023/12/22 04:00:19;;;;;;;16.52;2.92;;;6.70;86.90;;;;;;9178622;19;20023;-73
2023/12/22 04:03:27;;;;;;;15.18;2.65;;;6.70;86.90;;;;;;9173690;19;20106;-72
2023/12/22 04:06:33;;;;;;;15.02;1.65;;;6.70;86.90;;;;;;9176802;19;20042;-71
2023/12/22 04:09:41;;;;;;;7.30;1.50;;;6.60;86.90;;;;;;9177071;19;20010;-73
2023/12/22 04:12:49;;;;;;;23.15;1.85;;;6.70;87.00;;;;;;9175603;19;20018;-71
2023/12/22 04:15:57;;;;;;;12.40;1.63;;;6.60;86.90;;;;;;9178063;19;20025;-74
2023/12/22 04:19:02;;;;;;;11.13;1.90;;;6.60;86.90;;;;;;9175118;19;20073;-73
2023/12/22 04:22:10;;;;;;;10.25;1.33;;;6.60;86.90;;;;;;9173877;19;20014;-72
2023/12/22 04:25:16;;;;;;;11.27;1.60;;;6.60;86.80;;;;;;9176342;19;20038;-72
2023/12/22 04:28:26;;;;;;;17.70;1.90;;;6.60;86.90;;;;;;9175876;19;20578;-72
2023/12/22 04:31:34;;;;;;;12.85;1.95;;;6.60;86.80;;;;;;9176633;19;20011;-72
2023/12/22 04:34:42;;;;;;;14.50;1.90;;;6.50;86.80;;;;;;9176586;19;20025;-72
2023/12/22 04:37:49;;;;;;;8.35;1.75;;;6.50;86.80;;;;;;9174308;19;20010;-72
2023/12/22 04:40:57;;;;;;;9.60;1.92;;;6.50;86.90;;;;;;9173951;19;20018;-72
2023/12/22 04:44:05;;;;;;;23.98;3.80;;;6.50;86.80;;;;;;9176245;19;20014;-72
2023/12/22 04:47:13;;;;;;;16.85;1.88;;;6.50;86.90;;;;;;9175997;19;20376;-72
2023/12/22 04:50:19;;;;;;;18.20;2.15;;;6.50;86.90;;;;;;9176139;19;20014;-72
2023/12/22 04:53:26;;;;;;;16.00;2.33;;;6.50;87.00;;;;;;9176374;19;20118;-72
2023/12/22 04:56:32;;;;;;;25.50;3.05;;;6.50;87.00;;;;;;9175515;19;20033;-71
2023/12/22 04:59:42;;;;;;;18.92;2.30;;;6.50;87.10;;;;;;9174135;19;20487;-72
2023/12/22 05:02:48;;;;;;;28.33;2.95;;;6.50;87.10;;;;;;9169312;19;20018;-72
2023/12/22 05:05:55;;;;;;;23.13;3.05;;;6.50;87.10;;;;;;9173198;19;20338;-70
2023/12/22 05:09:02;;;;;;;20.23;5.25;;;6.50;87.20;;;;;;9174878;19;20081;-70
2023/12/22 05:12:10;;;;;;;16.55;2.35;;;6.60;87.30;;;;;;9173142;19;20015;-71
2023/12/22 05:15:18;;;;;;;32.70;4.60;;;6.60;87.30;;;;;;9174824;19;20037;-70
2023/12/22 05:18:26;;;;;;;24.15;2.90;;;6.60;87.30;;;;;;9172367;19;20003;-71
2023/12/22 05:21:32;;;;;;;23.75;2.97;;;6.60;87.40;;;;;;9173069;19;20096;-71
2023/12/22 05:24:40;;;;;;;20.60;2.65;;;6.60;87.40;;;;;;9173952;19;20025;-71
2023/12/22 05:27:46;;;;;;;23.15;2.47;;;6.70;87.40;;;;;;9174688;19;20361;-69
2023/12/22 05:30:56;;;;;;;18.35;3.05;;;6.70;87.40;;;;;;9174490;19;20015;-70
2023/12/22 05:34:03;;;;;;;24.92;2.75;;;6.70;87.40;;;;;;9174477;19;20086;-70
2023/12/22 05:37:11;;;;;;;32.72;3.45;;;6.70;87.40;;;;;;9173819;19;20014;-70
2023/12/22 05:40:18;;;;;;;18.33;3.08;;;6.70;87.30;;;;;;9173917;19;20011;-71
2023/12/22 05:43:29;;;;;;;22.05;2.75;;;6.80;87.40;;;;;;9171448;19;20014;-70
2023/12/22 05:46:41;;;;;;;17.52;2.53;;;6.80;87.40;;;;;;9175120;19;20372;-70
2023/12/22 05:49:50;;;;;;;13.00;2.20;;;6.90;87.40;;;;;;9180985;19;20021;-70
2023/12/22 05:52:55;;;;;;;25.38;2.85;;;6.90;87.40;;;;;;9182022;19;20074;-70
2023/12/22 05:56:03;;;;;;;15.13;2.70;;;6.90;87.30;;;;;;9182901;19;20484;-69
2023/12/22 05:59:08;;;;;;;16.45;2.78;;;6.90;87.40;;;;;;9182195;19;20018;-70
2023/12/22 06:02:21;;;;;;;17.08;2.20;;;6.90;87.20;;;;;;9176319;19;20029;-70
2023/12/22 06:05:27;;;;;;;24.60;2.80;;;7.00;87.20;;;;;;9179698;19;20468;-69
2023/12/22 06:08:35;;;;;;;27.88;3.30;;;7.00;87.20;;;;;;9182386;19;20365;-70
2023/12/22 06:11:40;;;;;;;16.70;2.83;;;7.00;87.20;;;;;;9181298;19;20037;-70
2023/12/22 06:14:48;;;;;;;18.83;2.70;;;7.00;87.10;;;;;;9179621;19;20021;-70
2023/12/22 06:17:56;;;;;;;20.48;2.45;;;7.00;87.10;;;;;;9182350;19;20034;-70
2023/12/22 06:21:04;;;;;;;23.65;2.47;;;7.00;87.10;;;;;;9177993;19;20018;-68
2023/12/22 06:24:10;;;;;;;26.17;3.15;;;7.00;87.10;;;;;;9179737;19;20475;-69
2023/12/22 06:27:18;;;;;;;21.15;3.00;;;7.10;87.20;;;;;;9178822;19;20360;-68
2023/12/22 06:30:23;;;;;;;16.65;2.63;;;7.10;87.20;;;;;;9181594;19;20386;-68
2023/12/22 06:33:33;;;;;;;11.02;2.05;;;7.10;87.10;;;;;;9178290;19;20726;-68
2023/12/22 06:36:41;;;;;;;25.23;2.40;;;7.10;87.10;;;;;;9181429;19;20015;-70
2023/12/22 06:39:49;;;;;;;21.30;2.97;;;7.10;87.10;;;;;;9180497;19;20090;-70
2023/12/22 06:42:57;;;;;;;27.30;3.58;;;7.10;87.10;;;;;;9179669;19;20011;-69
2023/12/22 06:46:18;;;;;;;22.42;2.90;;;7.10;87.20;;;;;;9180745;19;20022;-69
2023/12/22 06:49:29;;;;;;;21.92;3.50;;;7.20;87.20;;;;;;9178836;19;20442;-70
2023/12/22 06:52:36;;;;;;;36.53;4.90;;;7.20;87.20;;;;;;9178549;19;20706;-68
2023/12/22 06:55:42;;;;;;;27.02;3.13;;;7.20;87.20;;;;;;9180142;19;20025;-70
2023/12/22 06:58:53;;;;;;;20.38;2.97;;;7.20;87.20;;;;;;9180447;19;20022;-70
2023/12/22 07:01:59;;;;;;;19.92;2.83;;;7.20;87.20;;;;;;9176315;19;21366;-71
2023/12/22 07:05:39;;;;;;;14.60;2.15;;;7.20;87.20;;;;;;9179971;19;20015;-69
2023/12/22 07:08:54;;;;;;;18.90;3.53;;;7.20;87.30;;;;;;9181566;19;20030;-71
2023/12/22 07:12:09;;;;;;;25.02;3.08;;;7.20;87.20;;;;;;9176256;19;20034;-69
2023/12/22 07:15:15;;;;;;;9.07;1.83;;;7.20;87.30;;;;;;9178126;19;20342;-69
2023/12/22 07:18:23;;;;;;;19.92;1.98;;;7.20;87.30;;;;;;9179585;19;20018;-70
2023/12/22 07:21:32;;;;;;;22.70;3.35;;;7.30;87.40;;;;;;9176565;19;20491;-70
2023/12/22 07:24:39;;;;;;;16.90;2.58;;;7.30;87.40;;;;;;9179582;19;20491;-69
2023/12/22 07:27:45;;;;;;;15.27;2.50;;;7.30;87.40;;;;;;9180117;19;20793;-74
2023/12/22 07:30:55;;;;;;;30.40;3.67;;;7.30;87.40;;;;;;9179136;19;20039;-73
2023/12/22 07:34:01;;;;;;;19.13;2.30;;;7.30;87.40;;;;;;9179670;19;20011;-75
2023/12/22 07:37:11;;;;;;;13.85;3.13;;;7.30;87.40;;;;;;9179950;19;20014;-75
2023/12/22 07:40:19;;;;;;;15.30;2.53;;;7.30;87.40;;;;;;9177498;19;20027;-75
2023/12/22 07:43:29;;;;;;;16.55;2.55;;;7.30;87.40;;;;;;9176551;19;20546;-74
2023/12/22 07:46:35;;;;;;;13.65;2.10;;;7.30;87.50;;;;;;9179104;19;20334;-74
2023/12/22 07:49:42;;;;;;;16.52;2.15;;;7.30;87.50;;;;;;9177112;19;20011;-74
2023/12/22 07:52:51;;;;;;;17.83;2.33;;;7.30;87.50;;;;;;9175321;19;20082;-73
2023/12/22 07:55:59;;;;;;;17.60;2.28;;;7.30;87.50;;;;;;9177749;19;20018;-74
2023/12/22 07:59:05;;;;;;;15.00;2.30;;;7.30;87.60;;;;;;9174897;19;20019;-75
2023/12/22 08:02:33;;;;;;;13.57;2.25;;;7.30;87.60;;;;;;9171481;19;20480;-73
2023/12/22 08:05:38;;;;;;;18.95;2.33;;;7.30;87.60;;;;;;9173253;19;20052;-75
2023/12/22 08:08:48;;;;;;;10.82;1.73;;;7.30;87.70;;;;;;9177046;19;20018;-76
2023/12/22 08:11:56;;;;;;;13.30;1.98;;;7.30;87.60;;;;;;9177303;19;20101;-76
2023/12/22 08:15:05;;;;;;;14.45;3.00;;;7.20;87.70;;;;;;9178753;19;20025;-73
2023/12/22 08:18:10;;;;;;;15.48;2.47;;;7.30;87.80;;;;;;9177979;19;20457;-75
2023/12/22 08:21:18;;;;;;;7.88;2.50;;;7.30;87.90;;;;;;9175485;19;20022;-74
2023/12/22 08:24:41;;;;;;;4.75;1.60;;;7.30;88.00;;;;;;9174860;19;20011;-76
2023/12/22 08:27:49;;;;;;;9.20;1.70;;;7.30;87.90;;;;;;9177043;19;20054;-75
2023/12/22 08:30:55;;;;;;;13.38;1.45;;;7.30;87.90;;;;;;9178069;19;20014;-75
2023/12/22 08:34:02;;;;;;;14.93;1.95;;;7.30;87.90;;;;;;9176615;19;20480;-74
2023/12/22 08:37:08;;;;;;;11.23;1.98;;;7.30;87.90;;;;;;9178367;19;20022;-73
2023/12/22 08:40:23;;;;;;;7.40;1.35;;;7.30;87.90;;;;;;9175442;19;20022;-75
2023/12/22 08:43:29;;;;;;;12.73;2.25;;;7.30;87.90;;;;;;9177098;19;20008;-76
2023/12/22 08:46:37;;;;;;;9.65;1.83;;;7.30;87.90;;;;;;9175951;19;20022;-71
2023/12/22 08:49:43;;;;;;;11.35;2.60;;;7.30;88.00;;;;;;9176266;19;20023;-71
2023/12/22 08:52:51;;;;;;;10.82;1.75;;;7.30;88.00;;;;;;9176108;19;20015;-72
2023/12/22 08:55:59;;;;;;;7.13;2.28;;;7.40;88.10;;;;;;9173619;19;20686;-71
2023/12/22 08:59:08;;;;;;;9.65;1.60;;;7.40;88.10;;;;;;9176167;19;20014;-72
2023/12/22 09:02:34;;;;;;;11.25;1.80;;;7.40;88.10;;;;;;9168504;19;20023;-72
2023/12/22 09:05:42;;;;;;;9.23;1.50;;;7.40;88.10;;;;;;9175356;19;20487;-71
2023/12/22 09:08:51;;;;;;;8.80;1.55;;;7.40;88.10;;;;;;9173894;19;20476;-72
2023/12/22 09:12:02;;;;;;;15.65;1.98;;;7.40;88.10;;;;;;9175922;19;20025;-71
2023/12/22 09:15:08;;;;;;;11.13;3.90;;;7.40;88.20;;;;;;9175461;19;20022;-72
2023/12/22 09:18:16;;;;;;;11.98;1.75;;;7.50;88.20;;;;;;9174481;19;20019;-72
2023/12/22 09:21:22;;;;;;;9.40;1.98;;;7.50;88.20;;;;;;9175585;19;20022;-72
2023/12/22 09:24:29;;;;;;;16.30;2.40;;;7.50;88.20;;;;;;9179327;19;20020;-72
2023/12/22 09:27:40;;;;;;;7.10;1.33;;;7.50;88.30;;;;;;9180834;19;20014;-72
2023/12/22 09:30:48;;;;;;;9.80;1.85;;;7.50;88.40;;;;;;9184350;19;20011;-72
2023/12/22 09:33:53;;;;;;;11.20;2.17;;;7.60;88.40;;;;;;9184729;19;20612;-73
2023/12/22 09:37:01;;;;;;;13.32;1.15;;;7.60;88.40;;;;;;9184063;19;20017;-73
2023/12/22 09:40:09;;;;;;;11.80;2.50;;;7.60;88.40;;;;;;9181159;19;20014;-72
2023/12/22 09:43:21;;;;;;;11.07;2.38;;;7.60;88.40;;;;;;9182066;19;20014;-72
2023/12/22 09:46:29;;;;;;;25.20;2.50;;;7.60;88.50;;;;;;9182922;19;20011;-72
2023/12/22 09:49:38;;;;;;;11.25;2.10;;;7.60;88.60;;;;;;9183013;19;20614;-72
2023/12/22 09:52:46;;;;;;;9.73;1.63;;;7.70;88.40;;;;;;9183777;19;20129;-71
2023/12/22 09:55:56;;;;;;;11.55;2.22;;;7.70;89.10;;;;;;9182569;19;20010;-72
2023/12/22 09:59:05;;;;;;;12.05;2.13;;;7.70;88.50;;;;;;9180687;19;20368;-71
2023/12/22 10:02:13;;;;;;;13.13;2.05;;;7.70;88.50;;;;;;9177950;19;20025;-72
2023/12/22 10:05:19;;;;;;;12.90;3.05;;;7.70;88.60;;;;;;9179780;19;20014;-72
2023/12/22 10:08:29;;;;;;;13.27;2.88;;;7.70;88.50;;;;;;9182457;19;20026;-72
2023/12/22 10:11:35;;;;;;;12.32;2.28;;;7.70;88.60;;;;;;9180458;19;20010;-71
2023/12/22 10:14:46;;;;;;;9.30;1.88;;;7.70;88.50;;;;;;9182613;19;20021;-73
2023/12/22 10:17:51;;;;;;;9.77;1.50;;;7.80;88.60;;;;;;9180329;19;20030;-73
2023/12/22 10:21:00;;;;;;;19.27;1.92;;;7.80;88.50;;;;;;9182037;19;20487;-75
2023/12/22 10:24:07;;;;;;;15.75;1.80;;;7.80;88.50;;;;;;9180867;19;20052;-74
2023/12/22 10:27:15;;;;;;;7.93;1.38;;;7.80;88.50;;;;;;9181928;19;20015;-71
2023/12/22 10:30:24;;;;;;;9.95;1.48;;;7.70;88.50;;;;;;9180298;19;20011;-72
2023/12/22 10:33:32;;;;;;;7.32;1.23;;;7.70;88.60;;;;;;9178222;19;20021;-72
2023/12/22 10:36:38;;;;;;;3.10;1.20;;;7.70;88.60;;;;;;9179588;19;20011;-73
2023/12/22 10:39:48;;;;;;;3.88;1.10;;;7.70;88.60;;;;;;9181337;19;20491;-72
2023/12/22 10:42:54;;;;;;;3.25;1.02;;;7.70;88.60;;;;;;9181053;19;20011;-72
2023/12/22 10:46:05;;;;;;;8.55;1.27;;;7.70;88.50;;;;;;9179200;19;20019;-73
2023/12/22 10:49:11;;;;;;;4.40;0.90;;;7.60;88.60;;;;;;9180043;19;20074;-72
2023/12/22 10:52:20;;;;;;;6.22;0.88;;;7.60;88.60;;;;;;9180027;19;20026;-73
2023/12/22 10:55:26;;;;;;;5.78;1.02;;;7.60;88.70;;;;;;9178974;19;20024;-73
2023/12/22 10:58:34;;;;;;;4.90;3.17;;;7.60;88.70;;;;;;9181651;19;20025;-73
2023/12/22 11:01:42;;;;;;;4.53;0.65;;;7.50;88.70;;;;;;9179217;19;20029;-73
2023/12/22 11:05:00;;;;;;;5.60;0.90;;;7.50;88.80;;;;;;9173590;19;20029;-73
2023/12/22 11:08:10;;;;;;;3.88;0.90;;;7.50;88.90;;;;;;9177628;19;20558;-75
2023/12/22 11:11:29;;;;;;;2.47;0.98;;;7.50;88.90;;;;;;9178070;19;20022;-75
2023/12/22 11:14:37;;;;;;;2.35;0.80;;;7.50;88.80;;;;;;9180842;19;20115;-75
2023/12/22 11:17:49;;;;;;;4.00;0.77;;;7.50;88.80;;;;;;9178784;19;20014;-72
2023/12/22 11:20:57;;;;;;;2.20;0.70;;;7.50;88.80;;;;;;9178670;19;20106;-73
2023/12/22 11:24:06;;;;;;;7.13;1.70;;;7.50;88.80;;;;;;9176909;19;20014;-73
2023/12/22 11:27:14;;;;;;;2.20;0.50;;;7.50;88.90;;;;;;9180150;19;20018;-73
2023/12/22 11:30:24;;;;;;;8.70;2.75;;;7.50;88.90;;;;;;9179489;19;20042;-73
2023/12/22 11:33:33;;;;;;;2.83;0.52;;;7.40;88.80;;;;;;9177597;19;20369;-72
2023/12/22 11:36:42;;;;;;;6.63;0.70;;;7.40;88.80;;;;;;9177925;19;20019;-73
2023/12/22 11:39:48;;;;;;;4.25;0.70;;;7.40;88.90;;;;;;9176864;19;20042;-73
2023/12/22 11:42:57;;;;;;;3.22;0.80;;;7.50;89.00;;;;;;9161833;19;20021;-73
2023/12/22 11:46:05;;;;;;;3.13;0.82;;;7.50;89.00;;;;;;9161499;19;20867;-74
2023/12/22 11:49:15;;;;;;;3.10;0.98;;;7.40;89.00;;;;;;9177988;19;20483;-73
2023/12/22 11:52:29;;;;;;;3.15;1.02;;;7.40;89.00;;;;;;9175746;19;20018;-73
2023/12/22 11:55:58;;;;;;;2.20;0.60;;;7.40;89.00;;;;;;9176012;19;20022;-73
2023/12/22 11:59:04;;;;;;;1.50;0.40;;;7.40;89.00;;;;;;9177049;19;20021;-74
2023/12/22 12:02:14;;;;;;;2.30;0.45;;;7.40;89.00;;;;;;9174433;19;20669;-73
2023/12/22 12:05:22;;;;;;;3.50;0.85;;;7.50;89.10;;;;;;9177230;19;20052;-74
2023/12/22 12:08:33;;;;;;;3.30;0.65;;;7.50;89.20;;;;;;9176068;19;20014;-74
2023/12/22 12:12:08;;;;;;;2.45;0.40;;;7.40;89.10;;;;;;9177901;19;20461;-74
2023/12/22 12:15:20;;;;;;;0.45;0.45;;;7.50;89.10;;;;;;9176158;19;20029;-73
2023/12/22 12:18:26;;;;;;;1.90;0.45;;;7.50;89.20;;;;;;9176739;19;20018;-71
2023/12/22 12:21:36;;;;;;;3.42;0.70;;;7.50;89.20;;;;;;9176605;19;20025;-72
2023/12/22 12:24:43;;;;;;;4.30;0.82;;;7.50;89.30;;;;;;9175647;19;20015;-72
2023/12/22 12:27:51;;;;;;;4.32;0.65;;;7.50;89.20;;;;;;9176407;19;20042;-72
2023/12/22 12:31:02;;;;;;;3.05;0.47;;;7.50;89.30;;;;;;9174107;19;20017;-73
2023/12/22 12:34:10;;;;;;;3.55;0.80;;;7.50;89.30;;;;;;9176378;19;20018;-72
2023/12/22 12:37:20;;;;;;;0.65;0.38;;;7.50;89.30;;;;;;9176896;19;20014;-72
2023/12/22 12:40:33;;;;;;;1.90;0.60;;;7.50;89.40;;;;;;9176239;19;20022;-75
2023/12/22 12:43:43;;;;;;;5.85;0.95;;;7.60;89.40;;;;;;9176092;19;20044;-73
2023/12/22 12:46:51;;;;;;;2.92;0.68;;;7.60;89.50;;;;;;9171502;19;20046;-73
2023/12/22 12:50:00;;;;;;;3.05;0.82;;;7.60;89.50;;;;;;9175613;19;20026;-73
2023/12/22 12:53:11;;;;;;;3.70;0.70;;;7.60;89.60;;;;;;9174717;19;20018;-73
2023/12/22 12:56:17;;;;;;;2.78;1.30;;;7.60;89.50;;;;;;9176205;19;20002;-73
2023/12/22 12:59:25;;;;;;;6.32;1.92;;;7.60;89.50;;;;;;9172187;19;20021;-72
2023/12/22 13:02:30;;;;;;;3.10;0.77;;;7.60;89.50;;;;;;9171543;19;20377;-72
2023/12/22 13:05:38;;;;;;;3.90;1.15;;;7.60;89.50;;;;;;9173950;19;20468;-72
2023/12/22 13:08:53;;;;;;;3.83;1.10;;;7.60;89.60;;;;;;9172569;19;20110;-72
2023/12/22 13:12:01;;;;;;;3.92;0.73;;;7.60;89.60;;;;;;9174258;19;20014;-72
2023/12/22 13:15:07;;;;;;;1.55;0.50;;;7.60;89.60;;;;;;9175674;19;20014;-73
2023/12/22 13:18:14;;;;;;;2.67;0.70;;;7.60;89.70;;;;;;9175224;19;20026;-72
2023/12/22 13:21:21;;;;;;;0.52;0.50;;;7.60;89.60;;;;;;9174649;19;20010;-72
2023/12/22 13:24:31;;;;;;;2.88;0.73;;;7.60;89.70;;;;;;9175327;19;20006;-72
2023/12/22 13:27:47;;;;;;;9.75;0.77;;;7.70;89.80;;;;;;9171172;19;20025;-73
2023/12/22 13:30:56;;;;;;;4.70;0.70;;;7.70;89.80;;;;;;9172588;19;20011;-74
2023/12/22 13:34:02;;;;;;;3.60;0.88;;;7.70;89.80;;;;;;9175348;19;20949;-73
2023/12/22 13:37:10;;;;;;;5.32;1.38;;;7.70;89.80;;;;;;9174395;19;20086;-73
2023/12/22 13:40:18;;;;;;;2.40;0.65;;;7.70;89.90;;;;;;9172797;19;20021;-73
2023/12/22 13:43:31;;;;;;;1.25;0.70;;;7.70;89.90;;;;;;9174135;19;20361;-74
2023/12/22 13:46:40;;;;;;;1.75;0.60;;;7.70;89.90;;;;;;9172645;19;20106;-73
2023/12/22 13:49:48;;;;;;;3.28;0.50;;;7.70;90.00;;;;;;9173259;19;20014;-73
2023/12/22 13:52:54;;;;;;;2.13;0.73;;;7.70;90.00;;;;;;9173670;19;20026;-74
2023/12/22 13:56:05;;;;;;;2.58;0.63;;;7.70;90.00;;;;;;9173030;19;20023;-74
2023/12/22 13:59:10;;;;;;;1.50;0.70;;;7.70;90.00;;;;;;9174408;19;20014;-74
2023/12/22 14:02:18;;;;;;;1.80;0.52;;;7.70;90.00;;;;;;9169696;19;20021;-73
2023/12/22 14:05:24;;;;;;;1.48;0.65;;;7.80;90.00;;;;;;9170314;19;20021;-75
2023/12/22 14:08:33;;;;;;;3.30;0.50;;;7.80;90.00;;;;;;9169198;19;20011;-75
2023/12/22 14:11:42;;;;;;;2.83;1.50;;;7.80;90.10;;;;;;9179431;19;20018;-76
2023/12/22 14:15:03;;;;;;;3.30;0.82;;;7.80;90.10;;;;;;9180647;19;20018;-74
2023/12/22 14:18:12;;;;;;;2.90;0.50;;;7.90;90.10;;;;;;9173001;19;20060;-76
2023/12/22 14:21:20;;;;;;;5.28;0.98;;;7.90;90.10;;;;;;9181456;19;20021;-72
2023/12/22 14:24:26;;;;;;;13.98;3.53;;;7.90;90.30;;;;;;9181489;19;20373;-72
2023/12/22 14:27:36;;;;;;;3.05;0.80;;;7.90;90.10;;;;;;9180596;19;20383;-74
2023/12/22 14:30:42;;;;;;;7.07;0.77;;;8.00;90.10;;;;;;9182601;19;20446;-72
2023/12/22 14:33:51;;;;;;;3.78;0.80;;;8.00;90.10;;;;;;9177619;19;20014;-72
2023/12/22 14:36:56;;;;;;;2.70;0.63;;;8.00;90.10;;;;;;9178327;19;20018;-72
2023/12/22 14:40:04;;;;;;;11.02;1.00;;;8.00;90.10;;;;;;9179622;19;20025;-72
2023/12/22 14:43:12;;;;;;;1.67;0.60;;;8.00;90.10;;;;;;9179910;19;20025;-72
2023/12/22 14:46:20;;;;;;;3.13;0.77;;;8.00;90.10;;;;;;9177762;19;20014;-72
2023/12/22 14:49:25;;;;;;;2.72;0.70;;;8.00;90.10;;;;;;9181468;19;20023;-73
2023/12/22 14:52:33;;;;;;;9.60;1.67;;;8.00;90.10;;;;;;9181051;19;20550;-72
2023/12/22 14:55:39;;;;;;;4.53;1.50;;;8.00;90.10;;;;;;9179356;19;20037;-72
2023/12/22 14:58:49;;;;;;;5.93;1.60;;;8.00;90.20;;;;;;9179505;19;20015;-72
2023/12/22 15:01:55;;;;;;;4.18;0.90;;;8.00;90.10;;;;;;9181067;19;20047;-72
2023/12/22 15:05:04;;;;;;;2.08;0.52;;;8.00;90.10;;;;;;9180982;19;20030;-72
2023/12/22 15:08:09;;;;;;;3.30;0.50;;;8.00;90.10;;;;;;9178600;19;20019;-72
2023/12/22 15:11:17;;;;;;;1.63;0.60;;;8.00;90.10;;;;;;9180314;19;20018;-72
2023/12/22 15:14:26;;;;;;;3.40;0.52;;;7.90;90.10;;;;;;9180353;19;20010;-72
2023/12/22 15:17:33;;;;;;;2.33;0.50;;;7.90;90.40;;;;;;9178329;19;20480;-72
2023/12/22 15:20:40;;;;;;;2.42;0.63;;;7.90;90.10;;;;;;9177390;19;20060;-73
2023/12/22 15:23:47;;;;;;;1.48;0.40;;;7.80;90.10;;;;;;9178552;19;20022;-73
2023/12/22 15:26:54;;;;;;;4.13;0.65;;;7.80;90.10;;;;;;9178602;19;20365;-75
2023/12/22 15:30:04;;;;;;;8.70;0.98;;;7.80;90.10;;;;;;9179634;19;20865;-73
2023/12/22 15:33:09;;;;;;;2.70;0.45;;;7.80;90.10;;;;;;9179149;19;20024;-73
2023/12/22 15:36:21;;;;;;;2.03;0.63;;;7.80;90.20;;;;;;9177266;19;20006;-73
2023/12/22 15:39:27;;;;;;;3.03;1.23;;;7.80;90.10;;;;;;9177470;19;20078;-74
2023/12/22 15:42:35;;;;;;;3.17;0.90;;;7.80;90.10;;;;;;9178880;19;20472;-73
2023/12/22 15:45:43;;;;;;;2.58;0.45;;;7.70;90.10;;;;;;9178653;19;20345;-75
2023/12/22 15:48:52;;;;;;;0.55;0.40;;;7.70;90.10;;;;;;9176391;19;20102;-75
2023/12/22 15:51:58;;;;;;;4.07;0.77;;;7.70;90.20;;;;;;9178618;19;20018;-74
2023/12/22 15:55:06;;;;;;;3.53;1.48;;;7.70;90.10;;;;;;9176569;19;20010;-75
2023/12/22 15:58:12;;;;;;;5.72;1.13;;;7.70;90.20;;;;;;9177945;19;20022;-73
2023/12/22 16:01:22;;;;;;;4.40;0.80;;;7.70;90.20;;;;;;9176301;19;20031;-74
2023/12/22 16:04:29;;;;;;;3.97;0.70;;;7.70;90.20;;;;;;9174216;19;20025;-75
2023/12/22 16:07:36;;;;;;;2.40;0.50;;;7.70;90.20;;;;;;9175335;19;20019;-74
2023/12/22 16:10:42;;;;;;;4.10;0.80;;;7.70;90.20;;;;;;9176749;19;20010;-73
2023/12/22 16:13:50;;;;;;;2.40;0.60;;;7.70;90.20;;;;;;9176125;19;20458;-74
2023/12/22 16:17:00;;;;;;;7.82;0.75;;;7.70;90.20;;;;;;9177045;19;21219;-73
2023/12/22 16:20:11;;;;;;;2.63;0.52;;;7.70;90.20;;;;;;9174800;19;20014;-74
2023/12/22 16:23:21;;;;;;;3.22;0.60;;;7.70;90.20;;;;;;9175477;19;20018;-74
2023/12/22 16:26:29;;;;;;;3.88;1.00;;;7.70;90.20;;;;;;9174697;19;20015;-74